sensor_id;sensor_type;location;lat;lon;timestamp;pressure;altitude;pressure_sealevel;temperature;humidity
82413;BME280;72056;51.980;15.436;2023-12-22T00:01:04;97559.44;;;6.43;100.00
82413;BME280;72056;51.980;15.436;2023-12-22T00:03:41;97552.53;;;6.40;100.00
82413;BME280;72056;51.980;15.436;2023-12-22T00:06:08;97568.75;;;6.40;100.00
82413;BME280;72056;51.980;15.436;2023-12-22T00:08:38;97585.16;;;6.39;100.00
82413;BME280;72056;51.980;15.436;2023-12-22T00:11:06;97577.25;;;6.37;100.00
82413;BME280;72056;51.980;15.436;2023-12-22T00:13:33;97580.13;;;6.57;100.00
82413;BME280;72056;51.980;15.436;2023-12-22T00:16:00;97586.81;;;6.40;100.00
82413;BME280;72056;51.980;15.436;2023-12-22T00:18:28;97600.56;;;6.60;100.00
82413;BME280;72056;51.980;15.436;2023-12-22T00:20:55;97593.66;;;6.57;100.00
82413;BME280;72056;51.980;15.436;2023-12-22T00:23:23;97606.84;;;6.45;100.00
82413;BME280;72056;51.980;15.436;2023-12-22T00:25:49;97597.28;;;6.43;100.00
82413;BME280;72056;51.980;15.436;2023-12-22T00:28:16;97597.66;;;6.61;100.00
82413;BME280;72056;51.980;15.436;2023-12-22T00:30:43;97625.16;;;6.50;100.00
82413;BME280;72056;51.980;15.436;2023-12-22T00:33:12;97609.78;;;6.50;100.00
82413;BME280;72056;51.980;15.436;2023-12-22T00:35:39;97607.63;;;6.61;100.00
82413;BME280;72056;51.980;15.436;2023-12-22T00:38:11;97590.25;;;6.48;100.00
82413;BME280;72056;51.980;15.436;2023-12-22T00:40:39;97596.44;;;6.42;100.00
82413;BME280;72056;51.980;15.436;2023-12-22T00:43:07;97619.91;;;6.42;100.00
82413;BME280;72056;51.980;15.436;2023-12-22T00:45:33;97629.91;;;6.27;100.00
82413;BME280;72056;51.980;15.436;2023-12-22T00:48:00;97625.81;;;6.31;100.00
82413;BME280;72056;51.980;15.436;2023-12-22T00:50:28;97602.69;;;6.43;100.00
82413;BME280;72056;51.980;15.436;2023-12-22T00:52:55;97631.13;;;6.60;100.00
82413;BME280;72056;51.980;15.436;2023-12-22T00:55:22;97622.47;;;6.29;100.00
82413;BME280;72056;51.980;15.436;2023-12-22T00:57:50;97646.13;;;6.27;100.00
82413;BME280;72056;51.980;15.436;2023-12-22T01:00:17;97597.88;;;6.24;100.00
82413;BME280;72056;51.980;15.436;2023-12-22T01:02:49;97629.13;;;6.11;100.00
82413;BME280;72056;51.980;15.436;2023-12-22T01:05:21;97619.09;;;6.27;100.00
82413;BME280;72056;51.980;15.436;2023-12-22T01:07:53;97617.56;;;6.39;100.00
82413;BME280;72056;51.980;15.436;2023-12-22T01:10:20;97640.34;;;6.30;100.00
82413;BME280;72056;51.980;15.436;2023-12-22T01:12:51;97625.41;;;6.34;100.00
82413;BME280;72056;51.980;15.436;2023-12-22T01:15:18;97634.13;;;6.50;100.00
82413;BME280;72056;51.980;15.436;2023-12-22T01:17:45;97640.53;;;6.49;100.00
82413;BME280;72056;51.980;15.436;2023-12-22T01:20:13;97663.50;;;6.39;100.00
82413;BME280;72056;51.980;15.436;2023-12-22T01:22:40;97650.31;;;6.50;100.00
82413;BME280;72056;51.980;15.436;2023-12-22T01:25:08;97651.72;;;6.61;99.96
82413;BME280;72056;51.980;15.436;2023-12-22T01:27:35;97629.38;;;6.52;96.30
82413;BME280;72056;51.980;15.436;2023-12-22T01:30:03;97664.56;;;6.59;96.66
82413;BME280;72056;51.980;15.436;2023-12-22T01:32:31;97670.31;;;6.35;92.18
82413;BME280;72056;51.980;15.436;2023-12-22T01:35:01;97662.38;;;6.48;94.15
82413;BME280;72056;51.980;15.436;2023-12-22T01:37:33;97667.53;;;6.43;94.36
82413;BME280;72056;51.980;15.436;2023-12-22T01:40:00;97668.28;;;6.37;93.33
82413;BME280;72056;51.980;15.436;2023-12-22T01:42:28;97673.03;;;6.20;94.60
82413;BME280;72056;51.980;15.436;2023-12-22T01:44:59;97667.81;;;6.33;94.45
82413;BME280;72056;51.980;15.436;2023-12-22T01:47:26;97673.66;;;6.01;92.25
82413;BME280;72056;51.980;15.436;2023-12-22T01:49:53;97664.75;;;6.22;92.52
82413;BME280;72056;51.980;15.436;2023-12-22T01:52:20;97659.75;;;6.19;91.60
82413;BME280;72056;51.980;15.436;2023-12-22T01:54:49;97675.13;;;6.03;89.01
82413;BME280;72056;51.980;15.436;2023-12-22T01:57:19;97664.44;;;5.95;89.12
82413;BME280;72056;51.980;15.436;2023-12-22T01:59:48;97653.25;;;5.98;88.53
82413;BME280;72056;51.980;15.436;2023-12-22T02:02:15;97657.38;;;5.94;87.40
82413;BME280;72056;51.980;15.436;2023-12-22T02:04:42;97681.94;;;5.99;87.04
82413;BME280;72056;51.980;15.436;2023-12-22T02:07:47;97663.28;;;6.04;85.63
82413;BME280;72056;51.980;15.436;2023-12-22T02:10:14;97665.53;;;5.71;88.27
82413;BME280;72056;51.980;15.436;2023-12-22T02:12:46;97670.53;;;5.74;88.05
82413;BME280;72056;51.980;15.436;2023-12-22T02:15:14;97656.69;;;5.78;87.84
82413;BME280;72056;51.980;15.436;2023-12-22T02:18:04;97667.88;;;5.60;90.41
82413;BME280;72056;51.980;15.436;2023-12-22T02:20:38;97664.13;;;5.46;89.78
82413;BME280;72056;51.980;15.436;2023-12-22T02:23:04;97673.44;;;5.73;89.81
82413;BME280;72056;51.980;15.436;2023-12-22T02:25:37;97657.34;;;5.65;88.77
82413;BME280;72056;51.980;15.436;2023-12-22T02:28:10;97671.69;;;5.65;89.67
82413;BME280;72056;51.980;15.436;2023-12-22T02:31:02;97685.31;;;5.49;89.41
82413;BME280;72056;51.980;15.436;2023-12-22T02:33:31;97660.56;;;5.60;91.94
82413;BME280;72056;51.980;15.436;2023-12-22T02:36:04;97670.81;;;5.50;93.51
82413;BME280;72056;51.980;15.436;2023-12-22T02:38:33;97664.97;;;5.47;93.52
82413;BME280;72056;51.980;15.436;2023-12-22T02:41:02;97673.13;;;5.39;95.40
82413;BME280;72056;51.980;15.436;2023-12-22T02:43:35;97682.06;;;5.39;99.51
82413;BME280;72056;51.980;15.436;2023-12-22T02:46:02;97686.91;;;5.44;98.55
82413;BME280;72056;51.980;15.436;2023-12-22T02:48:29;97692.88;;;5.54;100.00
82413;BME280;72056;51.980;15.436;2023-12-22T03:05:21;97682.00;;;5.47;100.00
82413;BME280;72056;51.980;15.436;2023-12-22T03:07:49;97681.09;;;5.32;100.00
82413;BME280;72056;51.980;15.436;2023-12-22T03:10:15;97687.56;;;5.46;100.00
82413;BME280;72056;51.980;15.436;2023-12-22T03:12:42;97690.53;;;5.51;100.00
82413;BME280;72056;51.980;15.436;2023-12-22T03:15:10;97707.19;;;5.40;100.00
82413;BME280;72056;51.980;15.436;2023-12-22T03:17:37;97680.81;;;5.27;100.00
82413;BME280;72056;51.980;15.436;2023-12-22T03:20:04;97673.28;;;5.22;100.00
82413;BME280;72056;51.980;15.436;2023-12-22T03:22:32;97680.47;;;5.30;100.00
82413;BME280;72056;51.980;15.436;2023-12-22T03:24:59;97688.97;;;5.19;100.00
82413;BME280;72056;51.980;15.436;2023-12-22T03:27:25;97699.56;;;5.06;100.00
82413;BME280;72056;51.980;15.436;2023-12-22T03:29:52;97691.03;;;5.17;100.00
82413;BME280;72056;51.980;15.436;2023-12-22T03:32:18;97697.44;;;5.16;100.00
82413;BME280;72056;51.980;15.436;2023-12-22T03:34:45;97692.94;;;4.93;100.00
82413;BME280;72056;51.980;15.436;2023-12-22T03:37:12;97733.56;;;5.29;100.00
82413;BME280;72056;51.980;15.436;2023-12-22T03:39:38;97695.88;;;5.21;100.00
82413;BME280;72056;51.980;15.436;2023-12-22T03:42:04;97705.53;;;5.16;100.00
82413;BME280;72056;51.980;15.436;2023-12-22T04:20:20;97751.94;;;5.11;100.00
82413;BME280;72056;51.980;15.436;2023-12-22T04:22:47;97731.53;;;5.09;100.00
82413;BME280;72056;51.980;15.436;2023-12-22T04:25:13;97760.66;;;5.13;100.00
82413;BME280;72056;51.980;15.436;2023-12-22T04:27:40;97756.47;;;5.33;100.00
82413;BME280;72056;51.980;15.436;2023-12-22T04:30:09;97742.81;;;5.12;100.00
82413;BME280;72056;51.980;15.436;2023-12-22T04:32:36;97740.41;;;4.94;100.00
82413;BME280;72056;51.980;15.436;2023-12-22T04:35:03;97757.06;;;5.21;100.00
82413;BME280;72056;51.980;15.436;2023-12-22T04:37:30;97738.34;;;5.19;100.00
82413;BME280;72056;51.980;15.436;2023-12-22T04:39:56;97744.38;;;5.29;100.00
82413;BME280;72056;51.980;15.436;2023-12-22T04:42:23;97736.63;;;5.26;100.00
82413;BME280;72056;51.980;15.436;2023-12-22T04:44:51;97753.50;;;5.43;100.00
82413;BME280;72056;51.980;15.436;2023-12-22T04:47:19;97742.31;;;5.31;100.00
82413;BME280;72056;51.980;15.436;2023-12-22T04:49:45;97740.94;;;5.13;100.00
82413;BME280;72056;51.980;15.436;2023-12-22T04:52:12;97731.84;;;5.14;100.00
82413;BME280;72056;51.980;15.436;2023-12-22T04:54:38;97724.41;;;5.16;100.00
82413;BME280;72056;51.980;15.436;2023-12-22T04:57:05;97756.56;;;4.94;100.00
82413;BME280;72056;51.980;15.436;2023-12-22T04:59:31;97736.53;;;4.97;100.00
82413;BME280;72056;51.980;15.436;2023-12-22T05:01:59;97737.19;;;4.99;100.00
82413;BME280;72056;51.980;15.436;2023-12-22T05:04:25;97722.44;;;4.87;100.00
82413;BME280;72056;51.980;15.436;2023-12-22T05:06:52;97734.91;;;4.88;100.00
82413;BME280;72056;51.980;15.436;2023-12-22T05:09:18;97737.66;;;4.80;100.00
82413;BME280;72056;51.980;15.436;2023-12-22T05:11:46;97710.31;;;4.60;100.00
82413;BME280;72056;51.980;15.436;2023-12-22T05:14:13;97743.50;;;4.83;100.00
82413;BME280;72056;51.980;15.436;2023-12-22T05:16:40;97723.94;;;4.67;100.00
82413;BME280;72056;51.980;15.436;2023-12-22T05:19:07;97709.44;;;4.68;100.00
82413;BME280;72056;51.980;15.436;2023-12-22T05:21:34;97727.50;;;4.59;100.00
82413;BME280;72056;51.980;15.436;2023-12-22T05:24:01;97728.34;;;4.60;100.00
82413;BME280;72056;51.980;15.436;2023-12-22T05:26:27;97725.88;;;4.50;100.00
82413;BME280;72056;51.980;15.436;2023-12-22T05:28:56;97718.34;;;4.45;100.00
82413;BME280;72056;51.980;15.436;2023-12-22T05:31:23;97728.75;;;4.48;100.00
82413;BME280;72056;51.980;15.436;2023-12-22T05:33:49;97708.22;;;4.47;100.00
82413;BME280;72056;51.980;15.436;2023-12-22T05:36:17;97703.47;;;4.58;100.00
82413;BME280;72056;51.980;15.436;2023-12-22T05:38:45;97693.69;;;4.57;100.00
82413;BME280;72056;51.980;15.436;2023-12-22T05:41:13;97744.91;;;4.79;100.00
82413;BME280;72056;51.980;15.436;2023-12-22T05:43:40;97700.56;;;4.59;100.00
82413;BME280;72056;51.980;15.436;2023-12-22T05:46:06;97672.97;;;4.80;100.00
82413;BME280;72056;51.980;15.436;2023-12-22T05:48:34;97702.16;;;4.99;100.00
82413;BME280;72056;51.980;15.436;2023-12-22T05:51:01;97701.59;;;4.81;100.00
82413;BME280;72056;51.980;15.436;2023-12-22T05:53:29;97705.66;;;4.77;100.00
82413;BME280;72056;51.980;15.436;2023-12-22T05:55:56;97717.09;;;4.79;100.00
82413;BME280;72056;51.980;15.436;2023-12-22T05:58:22;97723.28;;;4.65;100.00
82413;BME280;72056;51.980;15.436;2023-12-22T06:00:49;97708.47;;;4.61;100.00
82413;BME280;72056;51.980;15.436;2023-12-22T06:03:17;97734.16;;;4.71;100.00
82413;BME280;72056;51.980;15.436;2023-12-22T06:05:43;97736.81;;;5.02;100.00
82413;BME280;72056;51.980;15.436;2023-12-22T06:08:10;97712.13;;;4.68;100.00
82413;BME280;72056;51.980;15.436;2023-12-22T06:10:37;97751.81;;;4.82;100.00
82413;BME280;72056;51.980;15.436;2023-12-22T06:13:03;97715.22;;;4.87;100.00
82413;BME280;72056;51.980;15.436;2023-12-22T06:15:31;97750.16;;;4.96;100.00
82413;BME280;72056;51.980;15.436;2023-12-22T06:17:58;97714.53;;;4.85;100.00
82413;BME280;72056;51.980;15.436;2023-12-22T06:20:25;97732.25;;;5.03;100.00
82413;BME280;72056;51.980;15.436;2023-12-22T06:22:52;97711.16;;;4.83;100.00
82413;BME280;72056;51.980;15.436;2023-12-22T06:25:18;97701.00;;;4.93;100.00
82413;BME280;72056;51.980;15.436;2023-12-22T06:27:45;97690.47;;;4.61;100.00
82413;BME280;72056;51.980;15.436;2023-12-22T06:30:13;97696.63;;;4.16;100.00
82413;BME280;72056;51.980;15.436;2023-12-22T06:32:41;97698.59;;;3.83;100.00
82413;BME280;72056;51.980;15.436;2023-12-22T06:35:09;97723.22;;;3.56;100.00
82413;BME280;72056;51.980;15.436;2023-12-22T06:37:36;97721.38;;;3.56;100.00
82413;BME280;72056;51.980;15.436;2023-12-22T06:40:03;97741.56;;;3.44;100.00
82413;BME280;72056;51.980;15.436;2023-12-22T06:42:31;97749.97;;;3.49;100.00
82413;BME280;72056;51.980;15.436;2023-12-22T06:44:58;97736.19;;;3.44;100.00
82413;BME280;72056;51.980;15.436;2023-12-22T06:47:24;97770.81;;;3.39;100.00
82413;BME280;72056;51.980;15.436;2023-12-22T06:49:53;97780.88;;;3.53;100.00
82413;BME280;72056;51.980;15.436;2023-12-22T06:52:19;97781.38;;;3.41;100.00
82413;BME280;72056;51.980;15.436;2023-12-22T06:54:46;97797.84;;;3.54;100.00
82413;BME280;72056;51.980;15.436;2023-12-22T06:57:14;97847.25;;;3.53;100.00
82413;BME280;72056;51.980;15.436;2023-12-22T06:59:44;97837.00;;;3.64;100.00
82413;BME280;72056;51.980;15.436;2023-12-22T07:02:13;97837.00;;;3.64;100.00
82413;BME280;72056;51.980;15.436;2023-12-22T07:04:40;97809.81;;;3.51;100.00
82413;BME280;72056;51.980;15.436;2023-12-22T07:07:25;97808.47;;;3.39;100.00
82413;BME280;72056;51.980;15.436;2023-12-22T07:09:53;97827.44;;;3.38;100.00
82413;BME280;72056;51.980;15.436;2023-12-22T07:12:22;97824.06;;;3.52;100.00
82413;BME280;72056;51.980;15.436;2023-12-22T07:14:50;97801.06;;;3.41;100.00
82413;BME280;72056;51.980;15.436;2023-12-22T07:17:16;97804.06;;;3.46;100.00
82413;BME280;72056;51.980;15.436;2023-12-22T07:19:43;97814.19;;;3.44;100.00
82413;BME280;72056;51.980;15.436;2023-12-22T07:22:10;97801.56;;;3.53;100.00
82413;BME280;72056;51.980;15.436;2023-12-22T07:24:37;97803.41;;;3.52;100.00
82413;BME280;72056;51.980;15.436;2023-12-22T07:27:03;97788.44;;;3.42;100.00
82413;BME280;72056;51.980;15.436;2023-12-22T07:29:31;97811.47;;;3.36;100.00
82413;BME280;72056;51.980;15.436;2023-12-22T07:31:58;97800.03;;;3.42;100.00
82413;BME280;72056;51.980;15.436;2023-12-22T07:34:25;97801.22;;;3.56;100.00
82413;BME280;72056;51.980;15.436;2023-12-22T07:36:52;97754.19;;;3.11;100.00
82413;BME280;72056;51.980;15.436;2023-12-22T07:39:19;97790.97;;;3.35;100.00
82413;BME280;72056;51.980;15.436;2023-12-22T07:41:45;97785.25;;;3.30;100.00
82413;BME280;72056;51.980;15.436;2023-12-22T07:44:14;97806.44;;;3.49;100.00
82413;BME280;72056;51.980;15.436;2023-12-22T07:46:41;97774.16;;;3.41;100.00
82413;BME280;72056;51.980;15.436;2023-12-22T07:49:08;97797.38;;;3.50;100.00
82413;BME280;72056;51.980;15.436;2023-12-22T07:51:34;97800.88;;;3.59;100.00
82413;BME280;72056;51.980;15.436;2023-12-22T07:54:00;97812.47;;;3.59;100.00
82413;BME280;72056;51.980;15.436;2023-12-22T07:56:26;97827.75;;;3.83;100.00
82413;BME280;72056;51.980;15.436;2023-12-22T07:58:53;97789.22;;;3.91;100.00
82413;BME280;72056;51.980;15.436;2023-12-22T08:01:20;97803.03;;;3.63;100.00
82413;BME280;72056;51.980;15.436;2023-12-22T08:03:51;97836.00;;;3.74;100.00
82413;BME280;72056;51.980;15.436;2023-12-22T08:06:21;97809.25;;;3.64;100.00
82413;BME280;72056;51.980;15.436;2023-12-22T08:08:48;97819.88;;;3.74;100.00
82413;BME280;72056;51.980;15.436;2023-12-22T08:11:15;97807.06;;;3.84;100.00
82413;BME280;72056;51.980;15.436;2023-12-22T08:13:44;97798.94;;;4.00;100.00
82413;BME280;72056;51.980;15.436;2023-12-22T08:16:11;97784.00;;;3.97;100.00
82413;BME280;72056;51.980;15.436;2023-12-22T08:18:37;97814.13;;;3.77;100.00
82413;BME280;72056;51.980;15.436;2023-12-22T08:21:04;97813.47;;;3.66;100.00
82413;BME280;72056;51.980;15.436;2023-12-22T08:23:32;97807.41;;;3.64;100.00
82413;BME280;72056;51.980;15.436;2023-12-22T08:26:00;97807.09;;;3.35;100.00
82413;BME280;72056;51.980;15.436;2023-12-22T08:28:30;97777.53;;;3.51;100.00
82413;BME280;72056;51.980;15.436;2023-12-22T08:30:57;97827.94;;;3.49;100.00
82413;BME280;72056;51.980;15.436;2023-12-22T08:33:24;97819.19;;;3.47;100.00
82413;BME280;72056;51.980;15.436;2023-12-22T08:35:51;97842.56;;;3.71;100.00
82413;BME280;72056;51.980;15.436;2023-12-22T08:38:20;97802.56;;;3.68;100.00
82413;BME280;72056;51.980;15.436;2023-12-22T08:40:47;97853.81;;;3.83;100.00
82413;BME280;72056;51.980;15.436;2023-12-22T08:43:16;97806.75;;;3.70;100.00
82413;BME280;72056;51.980;15.436;2023-12-22T08:45:43;97827.25;;;3.72;100.00
82413;BME280;72056;51.980;15.436;2023-12-22T08:48:11;97837.81;;;3.97;100.00
82413;BME280;72056;51.980;15.436;2023-12-22T08:50:38;97828.94;;;3.64;100.00
82413;BME280;72056;51.980;15.436;2023-12-22T08:53:05;97796.19;;;3.69;100.00
82413;BME280;72056;51.980;15.436;2023-12-22T08:55:32;97815.97;;;3.84;100.00
82413;BME280;72056;51.980;15.436;2023-12-22T08:58:01;97784.91;;;3.74;100.00
82413;BME280;72056;51.980;15.436;2023-12-22T09:00:27;97788.22;;;3.92;100.00
82413;BME280;72056;51.980;15.436;2023-12-22T09:02:55;97828.72;;;4.06;100.00
82413;BME280;72056;51.980;15.436;2023-12-22T09:05:26;97807.06;;;3.92;100.00
82413;BME280;72056;51.980;15.436;2023-12-22T09:07:54;97834.94;;;4.07;100.00
82413;BME280;72056;51.980;15.436;2023-12-22T09:10:20;97851.56;;;4.19;100.00
82413;BME280;72056;51.980;15.436;2023-12-22T09:12:51;97812.34;;;4.24;100.00
82413;BME280;72056;51.980;15.436;2023-12-22T09:15:22;97863.69;;;4.23;100.00
82413;BME280;72056;51.980;15.436;2023-12-22T09:17:50;97815.94;;;4.00;100.00
82413;BME280;72056;51.980;15.436;2023-12-22T09:20:18;97838.00;;;3.96;100.00
82413;BME280;72056;51.980;15.436;2023-12-22T09:22:45;97808.56;;;3.94;100.00
82413;BME280;72056;51.980;15.436;2023-12-22T09:25:14;97860.09;;;4.30;100.00
82413;BME280;72056;51.980;15.436;2023-12-22T09:27:43;97850.72;;;4.18;100.00
82413;BME280;72056;51.980;15.436;2023-12-22T09:30:11;97841.94;;;4.32;100.00
82413;BME280;72056;51.980;15.436;2023-12-22T09:32:37;97815.50;;;4.36;100.00
82413;BME280;72056;51.980;15.436;2023-12-22T09:35:03;97845.22;;;4.59;100.00
82413;BME280;72056;51.980;15.436;2023-12-22T09:37:31;97835.47;;;4.49;100.00
82413;BME280;72056;51.980;15.436;2023-12-22T09:39:57;97835.94;;;4.61;100.00
82413;BME280;72056;51.980;15.436;2023-12-22T09:42:26;97836.78;;;4.62;100.00
82413;BME280;72056;51.980;15.436;2023-12-22T09:44:53;97835.47;;;4.58;100.00
82413;BME280;72056;51.980;15.436;2023-12-22T09:47:21;97842.91;;;4.78;100.00
82413;BME280;72056;51.980;15.436;2023-12-22T09:49:50;97838.50;;;4.85;100.00
82413;BME280;72056;51.980;15.436;2023-12-22T09:52:18;97857.47;;;5.00;100.00
82413;BME280;72056;51.980;15.436;2023-12-22T09:54:45;97858.06;;;4.87;100.00
82413;BME280;72056;51.980;15.436;2023-12-22T09:57:13;97894.38;;;5.00;100.00
82413;BME280;72056;51.980;15.436;2023-12-22T09:59:40;97861.94;;;5.16;100.00
82413;BME280;72056;51.980;15.436;2023-12-22T10:02:09;97889.41;;;5.42;100.00
82413;BME280;72056;51.980;15.436;2023-12-22T10:04:39;97870.91;;;5.08;100.00
82413;BME280;72056;51.980;15.436;2023-12-22T10:07:06;97869.44;;;4.98;100.00
82413;BME280;72056;51.980;15.436;2023-12-22T10:09:35;97882.66;;;5.15;100.00
82413;BME280;72056;51.980;15.436;2023-12-22T10:12:03;97851.84;;;5.10;100.00
82413;BME280;72056;51.980;15.436;2023-12-22T10:14:31;97889.31;;;4.97;100.00
82413;BME280;72056;51.980;15.436;2023-12-22T10:16:59;97869.34;;;5.14;100.00
82413;BME280;72056;51.980;15.436;2023-12-22T10:19:26;97852.97;;;5.23;100.00
82413;BME280;72056;51.980;15.436;2023-12-22T10:21:54;97908.19;;;5.36;100.00
82413;BME280;72056;51.980;15.436;2023-12-22T10:24:46;97886.91;;;5.41;100.00
82413;BME280;72056;51.980;15.436;2023-12-22T10:27:14;97894.56;;;5.29;100.00
82413;BME280;72056;51.980;15.436;2023-12-22T10:29:41;97840.22;;;5.55;100.00
82413;BME280;72056;51.980;15.436;2023-12-22T10:32:07;97848.41;;;5.47;100.00
82413;BME280;72056;51.980;15.436;2023-12-22T10:34:36;97855.81;;;4.99;100.00
82413;BME280;72056;51.980;15.436;2023-12-22T10:37:04;97861.53;;;5.27;100.00
82413;BME280;72056;51.980;15.436;2023-12-22T10:39:31;97878.38;;;5.52;100.00
82413;BME280;72056;51.980;15.436;2023-12-22T10:41:58;97836.28;;;5.20;100.00
82413;BME280;72056;51.980;15.436;2023-12-22T10:44:25;97907.91;;;5.22;100.00
82413;BME280;72056;51.980;15.436;2023-12-22T10:46:52;97898.13;;;5.21;100.00
82413;BME280;72056;51.980;15.436;2023-12-22T10:49:20;97895.28;;;5.46;100.00
82413;BME280;72056;51.980;15.436;2023-12-22T10:51:47;97891.97;;;5.81;99.70
82413;BME280;72056;51.980;15.436;2023-12-22T10:54:13;97901.94;;;6.41;98.67
82413;BME280;72056;51.980;15.436;2023-12-22T10:56:40;97912.47;;;5.98;94.41
82413;BME280;72056;51.980;15.436;2023-12-22T10:59:08;97874.66;;;5.98;94.68
82413;BME280;72056;51.980;15.436;2023-12-22T11:01:38;97908.59;;;5.70;94.31
82413;BME280;72056;51.980;15.436;2023-12-22T11:04:13;97889.84;;;5.99;91.72
82413;BME280;72056;51.980;15.436;2023-12-22T11:06:57;97903.84;;;6.18;85.26
82413;BME280;72056;51.980;15.436;2023-12-22T11:09:23;97901.16;;;6.32;83.62
82413;BME280;72056;51.980;15.436;2023-12-22T11:11:51;97907.63;;;6.46;80.89
82413;BME280;72056;51.980;15.436;2023-12-22T11:14:17;97892.69;;;7.09;76.37
82413;BME280;72056;51.980;15.436;2023-12-22T11:16:44;97873.78;;;6.35;77.22
82413;BME280;72056;51.980;15.436;2023-12-22T11:19:13;97892.06;;;6.77;77.02
82413;BME280;72056;51.980;15.436;2023-12-22T11:21:40;97886.84;;;6.76;75.87
82413;BME280;72056;51.980;15.436;2023-12-22T11:24:13;97900.72;;;7.02;74.03
82413;BME280;72056;51.980;15.436;2023-12-22T11:26:41;97895.50;;;6.86;76.86
82413;BME280;72056;51.980;15.436;2023-12-22T11:29:09;97914.38;;;6.12;76.51
82413;BME280;72056;51.980;15.436;2023-12-22T11:31:36;97886.44;;;6.93;72.47
82413;BME280;72056;51.980;15.436;2023-12-22T11:34:05;97866.13;;;6.68;74.26
82413;BME280;72056;51.980;15.436;2023-12-22T11:36:32;97892.38;;;6.15;78.51
82413;BME280;72056;51.980;15.436;2023-12-22T11:39:00;97885.63;;;6.34;79.63
82413;BME280;72056;51.980;15.436;2023-12-22T11:41:29;97885.13;;;7.40;72.16
82413;BME280;72056;51.980;15.436;2023-12-22T11:43:57;97901.22;;;7.84;69.92
82413;BME280;72056;51.980;15.436;2023-12-22T11:46:25;97880.69;;;7.32;69.82
82413;BME280;72056;51.980;15.436;2023-12-22T11:48:52;97926.13;;;7.37;69.22
82413;BME280;72056;51.980;15.436;2023-12-22T11:51:21;97885.06;;;6.53;70.74
82413;BME280;72056;51.980;15.436;2023-12-22T11:53:51;97859.81;;;6.90;69.40
82413;BME280;72056;51.980;15.436;2023-12-22T11:56:18;97894.44;;;8.72;63.79
82413;BME280;72056;51.980;15.436;2023-12-22T11:58:47;97850.22;;;8.71;61.98
82413;BME280;72056;51.980;15.436;2023-12-22T12:01:25;97885.47;;;8.71;58.46
82413;BME280;72056;51.980;15.436;2023-12-22T12:04:02;97883.78;;;8.14;60.29
82413;BME280;72056;51.980;15.436;2023-12-22T12:09:15;97914.44;;;7.01;65.07
82413;BME280;72056;51.980;15.436;2023-12-22T12:14:32;97896.44;;;6.64;69.46
82413;BME280;72056;51.980;15.436;2023-12-22T12:17:05;97907.53;;;6.83;67.01
82413;BME280;72056;51.980;15.436;2023-12-22T12:19:40;97930.00;;;6.69;66.80
82413;BME280;72056;51.980;15.436;2023-12-22T12:22:11;97921.97;;;7.20;66.54
82413;BME280;72056;51.980;15.436;2023-12-22T12:24:39;97915.66;;;6.83;67.41
82413;BME280;72056;51.980;15.436;2023-12-22T12:27:05;97916.69;;;7.33;64.70
82413;BME280;72056;51.980;15.436;2023-12-22T12:29:32;97919.03;;;7.72;64.68
82413;BME280;72056;51.980;15.436;2023-12-22T12:32:04;97900.84;;;8.57;61.53
82413;BME280;72056;51.980;15.436;2023-12-22T12:34:32;97905.03;;;7.90;61.81
82413;BME280;72056;51.980;15.436;2023-12-22T12:36:59;97912.50;;;7.88;62.89
82413;BME280;72056;51.980;15.436;2023-12-22T12:39:29;97927.03;;;8.29;60.95
82413;BME280;72056;51.980;15.436;2023-12-22T12:41:59;97922.81;;;8.41;59.16
82413;BME280;72056;51.980;15.436;2023-12-22T12:44:25;97904.81;;;8.62;58.85
82413;BME280;72056;51.980;15.436;2023-12-22T12:46:52;97926.94;;;7.02;60.85
82413;BME280;72056;51.980;15.436;2023-12-22T12:49:19;97922.31;;;7.17;62.50
82413;BME280;72056;51.980;15.436;2023-12-22T12:51:48;97914.38;;;7.66;61.61
82413;BME280;72056;51.980;15.436;2023-12-22T12:54:15;97877.06;;;8.59;57.88
82413;BME280;72056;51.980;15.436;2023-12-22T12:56:46;97890.13;;;9.25;54.97
82413;BME280;72056;51.980;15.436;2023-12-22T12:59:15;97936.63;;;9.63;54.25
82413;BME280;72056;51.980;15.436;2023-12-22T13:01:44;97976.50;;;9.56;52.55
82413;BME280;72056;51.980;15.436;2023-12-22T13:04:13;97919.78;;;9.26;52.77
82413;BME280;72056;51.980;15.436;2023-12-22T13:07:02;97901.22;;;8.54;56.25
82413;BME280;72056;51.980;15.436;2023-12-22T13:09:33;97933.63;;;7.92;58.69
82413;BME280;72056;51.980;15.436;2023-12-22T13:12:00;97934.50;;;7.42;60.95
82413;BME280;72056;51.980;15.436;2023-12-22T13:14:27;97928.66;;;7.09;61.45
82413;BME280;72056;51.980;15.436;2023-12-22T13:16:54;97925.22;;;7.15;62.87
82413;BME280;72056;51.980;15.436;2023-12-22T13:19:25;97927.09;;;7.00;62.94
82413;BME280;72056;51.980;15.436;2023-12-22T13:21:55;97941.06;;;6.45;64.75
82413;BME280;72056;51.980;15.436;2023-12-22T13:24:22;97960.41;;;6.34;65.25
82413;BME280;72056;51.980;15.436;2023-12-22T13:26:59;97945.75;;;7.10;60.98
82413;BME280;72056;51.980;15.436;2023-12-22T13:29:27;97953.28;;;7.29;61.88
82413;BME280;72056;51.980;15.436;2023-12-22T13:31:55;97967.94;;;7.34;60.50
82413;BME280;72056;51.980;15.436;2023-12-22T13:34:23;97940.50;;;9.34;56.25
82413;BME280;72056;51.980;15.436;2023-12-22T13:36:51;97943.22;;;8.37;56.52
82413;BME280;72056;51.980;15.436;2023-12-22T13:39:17;97942.78;;;7.55;59.05
82413;BME280;72056;51.980;15.436;2023-12-22T13:41:44;97958.28;;;7.47;60.19
82413;BME280;72056;51.980;15.436;2023-12-22T13:44:12;97940.19;;;6.96;62.69
82413;BME280;72056;51.980;15.436;2023-12-22T13:46:39;97941.94;;;6.60;63.24
82413;BME280;72056;51.980;15.436;2023-12-22T13:49:09;97953.34;;;6.33;65.02
82413;BME280;72056;51.980;15.436;2023-12-22T13:51:58;97943.63;;;6.24;65.42
82413;BME280;72056;51.980;15.436;2023-12-22T13:54:32;97941.41;;;5.90;67.30